sensor_id;sensor_type;location;lat;lon;timestamp;temperature;humidity
72128;DHT22;60000;51.030;7.024;2022-10-16T00:01:39;13.55;92.26
72128;DHT22;60000;51.030;7.024;2022-10-16T00:04:04;13.58;92.31
72128;DHT22;60000;51.030;7.024;2022-10-16T00:06:30;13.52;92.16
72128;DHT22;60000;51.030;7.024;2022-10-16T00:08:56;13.48;92.08
72128;DHT22;60000;51.030;7.024;2022-10-16T00:11:25;13.44;92.05
72128;DHT22;60000;51.030;7.024;2022-10-16T00:13:54;13.42;92.28
72128;DHT22;60000;51.030;7.024;2022-10-16T00:16:20;13.45;92.37
72128;DHT22;60000;51.030;7.024;2022-10-16T00:18:45;13.46;92.50
72128;DHT22;60000;51.030;7.024;2022-10-16T00:21:20;13.46;92.46
72128;DHT22;60000;51.030;7.024;2022-10-16T00:23:46;13.51;92.39
72128;DHT22;60000;51.030;7.024;2022-10-16T00:26:14;13.51;92.26
72128;DHT22;60000;51.030;7.024;2022-10-16T00:28:39;13.53;92.31
72128;DHT22;60000;51.030;7.024;2022-10-16T00:31:07;13.52;92.14
72128;DHT22;60000;51.030;7.024;2022-10-16T00:33:34;13.55;92.09
72128;DHT22;60000;51.030;7.024;2022-10-16T00:36:01;13.55;91.95
72128;DHT22;60000;51.030;7.024;2022-10-16T00:38:26;13.58;91.91
72128;DHT22;60000;51.030;7.024;2022-10-16T00:40:52;13.58;91.64
72128;DHT22;60000;51.030;7.024;2022-10-16T00:46:18;13.55;91.49
72128;DHT22;60000;51.030;7.024;2022-10-16T00:48:48;13.55;91.42
72128;DHT22;60000;51.030;7.024;2022-10-16T00:51:15;13.55;91.29
72128;DHT22;60000;51.030;7.024;2022-10-16T00:53:40;13.51;91.17
72128;DHT22;60000;51.030;7.024;2022-10-16T00:56:06;13.49;91.21
72128;DHT22;60000;51.030;7.024;2022-10-16T00:58:32;13.45;91.02
72128;DHT22;60000;51.030;7.024;2022-10-16T01:00:57;13.42;91.31
72128;DHT22;60000;51.030;7.024;2022-10-16T01:09:43;13.41;91.48
72128;DHT22;60000;51.030;7.024;2022-10-16T01:12:16;13.44;91.31
72128;DHT22;60000;51.030;7.024;2022-10-16T01:14:53;13.44;91.31
72128;DHT22;60000;51.030;7.024;2022-10-16T01:17:26;13.44;91.19
72128;DHT22;60000;51.030;7.024;2022-10-16T01:22:43;13.44;91.19
72128;DHT22;60000;51.030;7.024;2022-10-16T01:25:19;13.44;91.12
72128;DHT22;60000;51.030;7.024;2022-10-16T01:27:48;13.39;91.16
72128;DHT22;60000;51.030;7.024;2022-10-16T01:30:18;13.38;91.35
72128;DHT22;60000;51.030;7.024;2022-10-16T01:35:47;13.32;91.54
72128;DHT22;60000;51.030;7.024;2022-10-16T01:38:17;13.35;91.67
72128;DHT22;60000;51.030;7.024;2022-10-16T01:40:51;13.38;91.56
72128;DHT22;60000;51.030;7.024;2022-10-16T01:43:21;13.34;91.51
72128;DHT22;60000;51.030;7.024;2022-10-16T01:45:48;13.32;91.43
72128;DHT22;60000;51.030;7.024;2022-10-16T01:48:17;13.29;91.51
72128;DHT22;60000;51.030;7.024;2022-10-16T01:50:44;13.28;91.60
72128;DHT22;60000;51.030;7.024;2022-10-16T01:53:15;13.28;91.84
72128;DHT22;60000;51.030;7.024;2022-10-16T01:55:44;13.26;91.80
72128;DHT22;60000;51.030;7.024;2022-10-16T01:58:12;13.26;91.83
72128;DHT22;60000;51.030;7.024;2022-10-16T02:00:41;13.26;91.90
72128;DHT22;60000;51.030;7.024;2022-10-16T02:03:08;13.29;91.91
72128;DHT22;60000;51.030;7.024;2022-10-16T02:05:42;13.29;91.90
72128;DHT22;60000;51.030;7.024;2022-10-16T02:08:10;13.26;91.84
72128;DHT22;60000;51.030;7.024;2022-10-16T02:10:37;13.26;91.86
72128;DHT22;60000;51.030;7.024;2022-10-16T02:13:06;13.25;91.94
72128;DHT22;60000;51.030;7.024;2022-10-16T02:15:34;13.22;92.06
72128;DHT22;60000;51.030;7.024;2022-10-16T02:17:59;13.26;92.14
72128;DHT22;60000;51.030;7.024;2022-10-16T02:20:28;13.31;92.15
72128;DHT22;60000;51.030;7.024;2022-10-16T02:22:58;13.32;92.14
72128;DHT22;60000;51.030;7.024;2022-10-16T02:25:38;13.31;92.19
72128;DHT22;60000;51.030;7.024;2022-10-16T02:28:25;13.32;92.21
72128;DHT22;60000;51.030;7.024;2022-10-16T02:31:00;13.31;92.10
72128;DHT22;60000;51.030;7.024;2022-10-16T02:33:27;13.29;92.19
72128;DHT22;60000;51.030;7.024;2022-10-16T02:35:54;13.28;92.19
72128;DHT22;60000;51.030;7.024;2022-10-16T02:38:21;13.28;92.31
72128;DHT22;60000;51.030;7.024;2022-10-16T02:40:47;13.26;92.19
72128;DHT22;60000;51.030;7.024;2022-10-16T02:43:13;13.25;92.36
72128;DHT22;60000;51.030;7.024;2022-10-16T02:45:38;13.25;92.20
72128;DHT22;60000;51.030;7.024;2022-10-16T02:48:04;13.25;92.31
72128;DHT22;60000;51.030;7.024;2022-10-16T02:50:29;13.22;92.37
72128;DHT22;60000;51.030;7.024;2022-10-16T02:52:55;13.22;92.36
72128;DHT22;60000;51.030;7.024;2022-10-16T02:55:20;13.24;92.43
72128;DHT22;60000;51.030;7.024;2022-10-16T02:57:45;13.24;92.57
72128;DHT22;60000;51.030;7.024;2022-10-16T03:00:13;13.26;92.49
72128;DHT22;60000;51.030;7.024;2022-10-16T03:02:38;13.26;92.56
72128;DHT22;60000;51.030;7.024;2022-10-16T03:05:04;13.28;92.64
72128;DHT22;60000;51.030;7.024;2022-10-16T03:07:30;13.28;92.60
72128;DHT22;60000;51.030;7.024;2022-10-16T03:09:55;13.29;92.53
72128;DHT22;60000;51.030;7.024;2022-10-16T03:12:21;13.29;92.50
72128;DHT22;60000;51.030;7.024;2022-10-16T03:14:46;13.29;92.45
72128;DHT22;60000;51.030;7.024;2022-10-16T03:17:12;13.29;92.38
72128;DHT22;60000;51.030;7.024;2022-10-16T03:19:38;13.28;92.29
72128;DHT22;60000;51.030;7.024;2022-10-16T03:22:03;13.24;92.18
72128;DHT22;60000;51.030;7.024;2022-10-16T03:24:29;13.22;92.20
72128;DHT22;60000;51.030;7.024;2022-10-16T03:26:54;13.21;92.22
72128;DHT22;60000;51.030;7.024;2022-10-16T03:29:19;13.18;92.31
72128;DHT22;60000;51.030;7.024;2022-10-16T03:31:45;13.16;92.28
72128;DHT22;60000;51.030;7.024;2022-10-16T03:34:10;13.14;92.37
72128;DHT22;60000;51.030;7.024;2022-10-16T03:36:35;13.12;92.32
72128;DHT22;60000;51.030;7.024;2022-10-16T03:39:01;13.11;92.55
72128;DHT22;60000;51.030;7.024;2022-10-16T03:41:27;13.10;92.45
72128;DHT22;60000;51.030;7.024;2022-10-16T03:43:52;13.07;92.56
72128;DHT22;60000;51.030;7.024;2022-10-16T03:46:17;13.04;92.59
72128;DHT22;60000;51.030;7.024;2022-10-16T03:48:43;13.05;92.82
72128;DHT22;60000;51.030;7.024;2022-10-16T03:51:08;13.05;92.82
72128;DHT22;60000;51.030;7.024;2022-10-16T03:53:33;13.03;93.01
72128;DHT22;60000;51.030;7.024;2022-10-16T03:55:58;13.07;92.98
72128;DHT22;60000;51.030;7.024;2022-10-16T03:58:24;13.03;93.12
72128;DHT22;60000;51.030;7.024;2022-10-16T04:00:49;13.05;93.11
72128;DHT22;60000;51.030;7.024;2022-10-16T04:03:14;13.07;93.16
72128;DHT22;60000;51.030;7.024;2022-10-16T04:05:40;13.07;93.17
72128;DHT22;60000;51.030;7.024;2022-10-16T04:08:05;13.08;93.22
72128;DHT22;60000;51.030;7.024;2022-10-16T04:10:31;13.08;93.28
72128;DHT22;60000;51.030;7.024;2022-10-16T04:12:56;13.11;93.25
72128;DHT22;60000;51.030;7.024;2022-10-16T04:15:23;13.12;93.28
72128;DHT22;60000;51.030;7.024;2022-10-16T04:17:48;13.14;93.25
72128;DHT22;60000;51.030;7.024;2022-10-16T04:20:13;13.16;93.24
72128;DHT22;60000;51.030;7.024;2022-10-16T04:22:39;13.15;93.16
72128;DHT22;60000;51.030;7.024;2022-10-16T04:25:05;13.15;93.19
72128;DHT22;60000;51.030;7.024;2022-10-16T04:27:30;13.19;93.06
72128;DHT22;60000;51.030;7.024;2022-10-16T04:29:57;13.16;93.02
72128;DHT22;60000;51.030;7.024;2022-10-16T04:32:22;13.16;93.04
72128;DHT22;60000;51.030;7.024;2022-10-16T04:34:47;13.15;92.99
72128;DHT22;60000;51.030;7.024;2022-10-16T04:37:13;13.16;92.91
72128;DHT22;60000;51.030;7.024;2022-10-16T04:39:38;13.16;92.84
72128;DHT22;60000;51.030;7.024;2022-10-16T04:42:03;13.18;92.75
72128;DHT22;60000;51.030;7.024;2022-10-16T04:44:29;13.14;92.71
72128;DHT22;60000;51.030;7.024;2022-10-16T04:46:54;13.14;92.76
72128;DHT22;60000;51.030;7.024;2022-10-16T04:49:19;13.14;92.80
72128;DHT22;60000;51.030;7.024;2022-10-16T04:51:45;13.12;92.79
72128;DHT22;60000;51.030;7.024;2022-10-16T04:54:10;13.11;92.67
72128;DHT22;60000;51.030;7.024;2022-10-16T04:56:36;13.11;92.69
72128;DHT22;60000;51.030;7.024;2022-10-16T04:59:08;13.15;92.75
72128;DHT22;60000;51.030;7.024;2022-10-16T05:01:34;13.12;92.75
72128;DHT22;60000;51.030;7.024;2022-10-16T05:03:59;13.11;92.66
72128;DHT22;60000;51.030;7.024;2022-10-16T05:06:24;13.11;92.63
72128;DHT22;60000;51.030;7.024;2022-10-16T05:08:50;13.11;92.73
72128;DHT22;60000;51.030;7.024;2022-10-16T05:11:15;13.07;92.70
72128;DHT22;60000;51.030;7.024;2022-10-16T05:13:40;13.07;92.65
72128;DHT22;60000;51.030;7.024;2022-10-16T05:16:06;13.04;92.62
72128;DHT22;60000;51.030;7.024;2022-10-16T05:18:31;13.04;92.66
72128;DHT22;60000;51.030;7.024;2022-10-16T05:20:57;13.01;92.67
72128;DHT22;60000;51.030;7.024;2022-10-16T05:23:22;13.00;92.69
72128;DHT22;60000;51.030;7.024;2022-10-16T05:25:55;12.98;92.95
72128;DHT22;60000;51.030;7.024;2022-10-16T05:28:27;13.00;92.95
72128;DHT22;60000;51.030;7.024;2022-10-16T05:30:53;12.94;92.85
72128;DHT22;60000;51.030;7.024;2022-10-16T05:33:23;12.94;92.93
72128;DHT22;60000;51.030;7.024;2022-10-16T05:35:48;12.95;93.07
72128;DHT22;60000;51.030;7.024;2022-10-16T05:38:15;12.94;93.07
72128;DHT22;60000;51.030;7.024;2022-10-16T05:40:40;12.94;93.04
72128;DHT22;60000;51.030;7.024;2022-10-16T05:43:05;12.91;93.02
72128;DHT22;60000;51.030;7.024;2022-10-16T05:45:31;12.94;93.03
72128;DHT22;60000;51.030;7.024;2022-10-16T05:47:56;12.93;93.02
72128;DHT22;60000;51.030;7.024;2022-10-16T05:50:21;12.93;92.97
72128;DHT22;60000;51.030;7.024;2022-10-16T05:52:47;12.95;93.11
72128;DHT22;60000;51.030;7.024;2022-10-16T05:55:12;12.94;93.03
72128;DHT22;60000;51.030;7.024;2022-10-16T05:57:37;12.94;92.94
72128;DHT22;60000;51.030;7.024;2022-10-16T06:00:04;12.91;92.89
72128;DHT22;60000;51.030;7.024;2022-10-16T06:02:29;12.90;92.76
72128;DHT22;60000;51.030;7.024;2022-10-16T06:04:55;12.87;92.72
72128;DHT22;60000;51.030;7.024;2022-10-16T06:07:21;12.83;92.91
72128;DHT22;60000;51.030;7.024;2022-10-16T06:09:50;12.80;92.77
72128;DHT22;60000;51.030;7.024;2022-10-16T06:12:16;12.79;92.77
72128;DHT22;60000;51.030;7.024;2022-10-16T06:14:41;12.80;93.06
72128;DHT22;60000;51.030;7.024;2022-10-16T06:17:07;12.77;92.98
72128;DHT22;60000;51.030;7.024;2022-10-16T06:19:32;12.77;93.07
72128;DHT22;60000;51.030;7.024;2022-10-16T06:21:57;12.80;93.15
72128;DHT22;60000;51.030;7.024;2022-10-16T06:24:24;12.81;93.14
72128;DHT22;60000;51.030;7.024;2022-10-16T06:26:49;12.81;93.18
72128;DHT22;60000;51.030;7.024;2022-10-16T06:29:14;12.84;93.07
72128;DHT22;60000;51.030;7.024;2022-10-16T06:31:40;12.87;93.03
72128;DHT22;60000;51.030;7.024;2022-10-16T06:34:05;12.86;92.97
72128;DHT22;60000;51.030;7.024;2022-10-16T06:36:34;12.90;92.91
72128;DHT22;60000;51.030;7.024;2022-10-16T06:39:00;12.91;92.88
72128;DHT22;60000;51.030;7.024;2022-10-16T06:41:25;12.95;92.88
72128;DHT22;60000;51.030;7.024;2022-10-16T06:43:51;12.98;92.90
72128;DHT22;60000;51.030;7.024;2022-10-16T06:46:20;13.04;92.80
72128;DHT22;60000;51.030;7.024;2022-10-16T06:48:46;13.10;92.86
72128;DHT22;60000;51.030;7.024;2022-10-16T06:51:17;13.15;92.75
72128;DHT22;60000;51.030;7.024;2022-10-16T06:53:53;13.19;92.80
72128;DHT22;60000;51.030;7.024;2022-10-16T06:56:21;13.28;92.72
72128;DHT22;60000;51.030;7.024;2022-10-16T06:58:48;13.36;92.56
72128;DHT22;60000;51.030;7.024;2022-10-16T07:01:15;13.39;92.47
72128;DHT22;60000;51.030;7.024;2022-10-16T07:03:42;13.44;92.37
72128;DHT22;60000;51.030;7.024;2022-10-16T07:06:09;13.52;92.29
72128;DHT22;60000;51.030;7.024;2022-10-16T07:08:37;13.59;92.14
72128;DHT22;60000;51.030;7.024;2022-10-16T07:11:08;13.62;91.95
72128;DHT22;60000;51.030;7.024;2022-10-16T07:13:35;13.67;91.91
72128;DHT22;60000;51.030;7.024;2022-10-16T07:16:08;13.70;91.70
72128;DHT22;60000;51.030;7.024;2022-10-16T07:18:35;13.80;91.63
72128;DHT22;60000;51.030;7.024;2022-10-16T07:21:10;13.86;91.40
72128;DHT22;60000;51.030;7.024;2022-10-16T07:23:36;13.94;91.35
72128;DHT22;60000;51.030;7.024;2022-10-16T07:26:02;14.03;90.63
72128;DHT22;60000;51.030;7.024;2022-10-16T07:28:28;14.10;90.83
72128;DHT22;60000;51.030;7.024;2022-10-16T07:30:54;14.16;90.80
72128;DHT22;60000;51.030;7.024;2022-10-16T07:33:20;14.21;90.67
72128;DHT22;60000;51.030;7.024;2022-10-16T07:35:53;14.28;90.82
72128;DHT22;60000;51.030;7.024;2022-10-16T07:38:19;14.30;90.48
72128;DHT22;60000;51.030;7.024;2022-10-16T07:40:45;14.35;90.16
72128;DHT22;60000;51.030;7.024;2022-10-16T07:43:10;14.40;90.06
72128;DHT22;60000;51.030;7.024;2022-10-16T07:45:36;14.46;90.30
72128;DHT22;60000;51.030;7.024;2022-10-16T07:48:01;14.52;89.85
72128;DHT22;60000;51.030;7.024;2022-10-16T07:50:26;14.54;89.57
72128;DHT22;60000;51.030;7.024;2022-10-16T07:52:52;14.65;89.76
72128;DHT22;60000;51.030;7.024;2022-10-16T07:55:17;14.78;90.20
72128;DHT22;60000;51.030;7.024;2022-10-16T07:57:42;14.91;89.20
72128;DHT22;60000;51.030;7.024;2022-10-16T08:00:08;14.93;88.72
72128;DHT22;60000;51.030;7.024;2022-10-16T08:02:38;15.03;88.23
72128;DHT22;60000;51.030;7.024;2022-10-16T08:05:05;15.26;88.93
72128;DHT22;60000;51.030;7.024;2022-10-16T08:07:30;15.61;88.43
72128;DHT22;60000;51.030;7.024;2022-10-16T08:09:55;15.97;87.69
72128;DHT22;60000;51.030;7.024;2022-10-16T08:12:23;16.15;86.32
72128;DHT22;60000;51.030;7.024;2022-10-16T08:14:48;16.50;85.92
72128;DHT22;60000;51.030;7.024;2022-10-16T08:17:14;16.76;83.51
72128;DHT22;60000;51.030;7.024;2022-10-16T08:19:44;17.11;82.37
72128;DHT22;60000;51.030;7.024;2022-10-16T08:22:09;17.62;82.58
72128;DHT22;60000;51.030;7.024;2022-10-16T08:24:35;17.90;79.86
72128;DHT22;60000;51.030;7.024;2022-10-16T08:27:02;18.27;78.71
72128;DHT22;60000;51.030;7.024;2022-10-16T08:29:28;18.57;77.23
72128;DHT22;60000;51.030;7.024;2022-10-16T08:31:53;18.71;75.84
72128;DHT22;60000;51.030;7.024;2022-10-16T08:34:18;19.05;75.96
72128;DHT22;60000;51.030;7.024;2022-10-16T08:36:44;19.03;72.98
72128;DHT22;60000;51.030;7.024;2022-10-16T08:39:09;19.19;72.89
72128;DHT22;60000;51.030;7.024;2022-10-16T08:47:49;19.33;70.86
72128;DHT22;60000;51.030;7.024;2022-10-16T08:50:25;19.33;69.94
72128;DHT22;60000;51.030;7.024;2022-10-16T08:52:53;19.55;71.82
72128;DHT22;60000;51.030;7.024;2022-10-16T08:55:33;19.75;71.30
72128;DHT22;60000;51.030;7.024;2022-10-16T08:57:59;19.91;69.70
72128;DHT22;60000;51.030;7.024;2022-10-16T09:00:26;19.96;68.84
72128;DHT22;60000;51.030;7.024;2022-10-16T09:03:17;20.15;68.24
72128;DHT22;60000;51.030;7.024;2022-10-16T09:05:52;20.16;68.55
72128;DHT22;60000;51.030;7.024;2022-10-16T09:16:38;20.15;64.79
72128;DHT22;60000;51.030;7.024;2022-10-16T09:19:20;20.23;65.65
72128;DHT22;60000;51.030;7.024;2022-10-16T09:21:47;20.21;64.36
72128;DHT22;60000;51.030;7.024;2022-10-16T09:24:18;20.18;63.35
72128;DHT22;60000;51.030;7.024;2022-10-16T09:26:44;20.25;63.20
72128;DHT22;60000;51.030;7.024;2022-10-16T09:29:14;20.22;62.21
72128;DHT22;60000;51.030;7.024;2022-10-16T09:31:39;20.29;63.34
72128;DHT22;60000;51.030;7.024;2022-10-16T09:34:06;20.40;62.09
72128;DHT22;60000;51.030;7.024;2022-10-16T09:36:40;20.56;61.82
72128;DHT22;60000;51.030;7.024;2022-10-16T09:39:09;20.62;61.19
72128;DHT22;60000;51.030;7.024;2022-10-16T09:41:37;20.59;60.97
72128;DHT22;60000;51.030;7.024;2022-10-16T09:44:06;20.81;60.57
72128;DHT22;60000;51.030;7.024;2022-10-16T09:46:34;20.98;59.34
72128;DHT22;60000;51.030;7.024;2022-10-16T09:49:04;21.11;59.65
72128;DHT22;60000;51.030;7.024;2022-10-16T09:51:35;21.22;59.14
72128;DHT22;60000;51.030;7.024;2022-10-16T09:56:34;21.42;59.00
72128;DHT22;60000;51.030;7.024;2022-10-16T09:59:15;21.58;59.18
72128;DHT22;60000;51.030;7.024;2022-10-16T10:01:44;21.59;58.02
72128;DHT22;60000;51.030;7.024;2022-10-16T10:04:11;21.62;56.60
72128;DHT22;60000;51.030;7.024;2022-10-16T10:06:42;21.58;56.67
72128;DHT22;60000;51.030;7.024;2022-10-16T10:09:24;21.65;56.17
72128;DHT22;60000;51.030;7.024;2022-10-16T10:12:00;21.76;55.59
72128;DHT22;60000;51.030;7.024;2022-10-16T10:22:43;22.14;54.26
72128;DHT22;60000;51.030;7.024;2022-10-16T10:33:07;21.99;54.49
72128;DHT22;60000;51.030;7.024;2022-10-16T10:43:35;21.34;56.07
72128;DHT22;60000;51.030;7.024;2022-10-16T10:46:05;21.27;56.17
72128;DHT22;60000;51.030;7.024;2022-10-16T10:48:51;21.39;56.36
72128;DHT22;60000;51.030;7.024;2022-10-16T10:51:44;21.42;55.98
72128;DHT22;60000;51.030;7.024;2022-10-16T10:57:21;21.37;55.20
72128;DHT22;60000;51.030;7.024;2022-10-16T10:59:59;21.17;55.74
72128;DHT22;60000;51.030;7.024;2022-10-16T11:02:44;21.11;57.00
72128;DHT22;60000;51.030;7.024;2022-10-16T11:05:48;21.11;56.60
72128;DHT22;60000;51.030;7.024;2022-10-16T11:11:27;21.46;57.05
72128;DHT22;60000;51.030;7.024;2022-10-16T11:14:00;21.56;55.97
72128;DHT22;60000;51.030;7.024;2022-10-16T11:17:05;21.49;55.26
72128;DHT22;60000;51.030;7.024;2022-10-16T11:19:42;21.38;54.32
72128;DHT22;60000;51.030;7.024;2022-10-16T11:22:16;21.32;55.16
72128;DHT22;60000;51.030;7.024;2022-10-16T11:24:48;21.30;55.03
72128;DHT22;60000;51.030;7.024;2022-10-16T11:27:19;21.28;56.22
72128;DHT22;60000;51.030;7.024;2022-10-16T11:30:08;21.07;55.61
72128;DHT22;60000;51.030;7.024;2022-10-16T11:32:51;21.03;56.78
72128;DHT22;60000;51.030;7.024;2022-10-16T11:35:23;20.97;57.07
72128;DHT22;60000;51.030;7.024;2022-10-16T11:37:50;20.85;57.10
72128;DHT22;60000;51.030;7.024;2022-10-16T11:40:33;20.87;58.19
72128;DHT22;60000;51.030;7.024;2022-10-16T11:43:13;20.97;58.26
72128;DHT22;60000;51.030;7.024;2022-10-16T11:45:46;20.97;56.86
72128;DHT22;60000;51.030;7.024;2022-10-16T11:48:36;21.01;57.17
72128;DHT22;60000;51.030;7.024;2022-10-16T11:51:14;21.08;57.26
72128;DHT22;60000;51.030;7.024;2022-10-16T11:53:56;21.18;56.55
72128;DHT22;60000;51.030;7.024;2022-10-16T11:56:24;21.15;55.26
72128;DHT22;60000;51.030;7.024;2022-10-16T12:01:49;21.14;56.34
72128;DHT22;60000;51.030;7.024;2022-10-16T12:09:27;20.91;56.65
72128;DHT22;60000;51.030;7.024;2022-10-16T12:11:54;20.88;56.67
72128;DHT22;60000;51.030;7.024;2022-10-16T12:16:55;20.88;55.88
72128;DHT22;60000;51.030;7.024;2022-10-16T12:19:25;21.01;57.30
72128;DHT22;60000;51.030;7.024;2022-10-16T12:21:52;21.05;56.51
72128;DHT22;60000;51.030;7.024;2022-10-16T12:24:35;21.08;56.36
72128;DHT22;60000;51.030;7.024;2022-10-16T12:27:03;21.04;56.14
72128;DHT22;60000;51.030;7.024;2022-10-16T12:29:41;20.90;55.86
72128;DHT22;60000;51.030;7.024;2022-10-16T12:32:33;20.74;55.42
72128;DHT22;60000;51.030;7.024;2022-10-16T12:35:00;20.73;56.56
72128;DHT22;60000;51.030;7.024;2022-10-16T12:37:31;20.63;55.50
72128;DHT22;60000;51.030;7.024;2022-10-16T12:40:12;20.54;54.80
72128;DHT22;60000;51.030;7.024;2022-10-16T12:42:38;20.56;55.49
72128;DHT22;60000;51.030;7.024;2022-10-16T12:47:50;20.64;56.32
72128;DHT22;60000;51.030;7.024;2022-10-16T12:50:37;20.67;55.39
72128;DHT22;60000;51.030;7.024;2022-10-16T12:53:17;20.67;54.24
72128;DHT22;60000;51.030;7.024;2022-10-16T12:56:01;20.67;55.29
72128;DHT22;60000;51.030;7.024;2022-10-16T12:58:48;20.62;54.82
72128;DHT22;60000;51.030;7.024;2022-10-16T13:01:28;20.64;55.71
72128;DHT22;60000;51.030;7.024;2022-10-16T13:09:47;20.63;54.51
72128;DHT22;60000;51.030;7.024;2022-10-16T13:15:40;20.63;55.02
72128;DHT22;60000;51.030;7.024;2022-10-16T13:27:04;20.59;55.43
72128;DHT22;60000;51.030;7.024;2022-10-16T13:29:33;20.54;55.75
72128;DHT22;60000;51.030;7.024;2022-10-16T13:32:00;20.47;55.38
72128;DHT22;60000;51.030;7.024;2022-10-16T13:34:27;20.39;55.67
72128;DHT22;60000;51.030;7.024;2022-10-16T13:36:53;20.32;55.69
72128;DHT22;60000;51.030;7.024;2022-10-16T13:39:26;20.30;55.86
72128;DHT22;60000;51.030;7.024;2022-10-16T13:42:05;20.35;56.16
72128;DHT22;60000;51.030;7.024;2022-10-16T13:44:36;20.37;55.95
72128;DHT22;60000;51.030;7.024;2022-10-16T13:47:04;20.40;55.97
72128;DHT22;60000;51.030;7.024;2022-10-16T13:49:29;20.46;56.07
72128;DHT22;60000;51.030;7.024;2022-10-16T13:51:56;20.52;55.26
72128;DHT22;60000;51.030;7.024;2022-10-16T13:54:23;20.50;55.85
72128;DHT22;60000;51.030;7.024;2022-10-16T13:56:48;20.54;54.87
72128;DHT22;60000;51.030;7.024;2022-10-16T13:59:34;20.60;55.41
72128;DHT22;60000;51.030;7.024;2022-10-16T14:02:04;20.64;55.46
72128;DHT22;60000;51.030;7.024;2022-10-16T14:04:32;20.64;54.57
72128;DHT22;60000;51.030;7.024;2022-10-16T14:06:58;20.66;55.05
72128;DHT22;60000;51.030;7.024;2022-10-16T14:09:27;20.63;55.06
72128;DHT22;60000;51.030;7.024;2022-10-16T14:11:56;20.69;56.08
72128;DHT22;60000;51.030;7.024;2022-10-16T14:14:23;20.73;56.68
72128;DHT22;60000;51.030;7.024;2022-10-16T14:16:49;20.62;56.02
72128;DHT22;60000;51.030;7.024;2022-10-16T14:19:25;20.56;56.24
72128;DHT22;60000;51.030;7.024;2022-10-16T14:21:51;20.49;56.36
72128;DHT22;60000;51.030;7.024;2022-10-16T14:24:31;20.46;57.08
72128;DHT22;60000;51.030;7.024;2022-10-16T14:26:57;20.45;57.66
72128;DHT22;60000;51.030;7.024;2022-10-16T14:29:25;20.39;57.43
72128;DHT22;60000;51.030;7.024;2022-10-16T14:32:02;20.36;57.96
72128;DHT22;60000;51.030;7.024;2022-10-16T14:34:34;20.33;58.33
72128;DHT22;60000;51.030;7.024;2022-10-16T14:37:10;20.30;58.69
72128;DHT22;60000;51.030;7.024;2022-10-16T14:39:39;20.32;59.16
72128;DHT22;60000;51.030;7.024;2022-10-16T14:42:14;20.28;59.52
72128;DHT22;60000;51.030;7.024;2022-10-16T14:44:41;20.29;59.63
72128;DHT22;60000;51.030;7.024;2022-10-16T14:47:09;20.26;59.94
72128;DHT22;60000;51.030;7.024;2022-10-16T14:49:37;20.25;59.83
72128;DHT22;60000;51.030;7.024;2022-10-16T14:52:08;20.23;60.11
72128;DHT22;60000;51.030;7.024;2022-10-16T14:54:33;20.23;60.55
72128;DHT22;60000;51.030;7.024;2022-10-16T14:56:59;20.25;61.13
72128;DHT22;60000;51.030;7.024;2022-10-16T14:59:39;20.30;61.11
72128;DHT22;60000;51.030;7.024;2022-10-16T15:04:45;20.32;60.79
72128;DHT22;60000;51.030;7.024;2022-10-16T15:07:10;20.30;60.96
72128;DHT22;60000;51.030;7.024;2022-10-16T15:09:36;20.25;61.28
72128;DHT22;60000;51.030;7.024;2022-10-16T15:12:01;20.18;61.68
72128;DHT22;60000;51.030;7.024;2022-10-16T15:14:26;20.16;62.15
72128;DHT22;60000;51.030;7.024;2022-10-16T15:16:52;20.06;62.06
72128;DHT22;60000;51.030;7.024;2022-10-16T15:19:17;20.05;62.40
72128;DHT22;60000;51.030;7.024;2022-10-16T15:21:42;20.04;62.94
72128;DHT22;60000;51.030;7.024;2022-10-16T15:24:11;19.98;63.09
72128;DHT22;60000;51.030;7.024;2022-10-16T15:26:37;19.99;63.16
72128;DHT22;60000;51.030;7.024;2022-10-16T15:29:03;19.91;63.46
72128;DHT22;60000;51.030;7.024;2022-10-16T15:31:28;19.86;63.61
72128;DHT22;60000;51.030;7.024;2022-10-16T15:33:54;19.81;64.07
72128;DHT22;60000;51.030;7.024;2022-10-16T15:36:27;19.75;64.48
72128;DHT22;60000;51.030;7.024;2022-10-16T15:38:53;19.71;64.91
72128;DHT22;60000;51.030;7.024;2022-10-16T15:41:18;19.64;65.20
72128;DHT22;60000;51.030;7.024;2022-10-16T15:43:44;19.58;65.38
72128;DHT22;60000;51.030;7.024;2022-10-16T15:46:11;19.54;65.87
72128;DHT22;60000;51.030;7.024;2022-10-16T15:48:37;19.50;66.21
72128;DHT22;60000;51.030;7.024;2022-10-16T15:51:05;19.46;66.81
72128;DHT22;60000;51.030;7.024;2022-10-16T15:53:30;19.41;66.88
72128;DHT22;60000;51.030;7.024;2022-10-16T15:55:56;19.38;67.17
72128;DHT22;60000;51.030;7.024;2022-10-16T15:58:21;19.33;67.50
72128;DHT22;60000;51.030;7.024;2022-10-16T16:00:55;19.28;67.78
72128;DHT22;60000;51.030;7.024;2022-10-16T16:03:20;19.23;67.99
72128;DHT22;60000;51.030;7.024;2022-10-16T16:05:46;19.17;68.13
72128;DHT22;60000;51.030;7.024;2022-10-16T16:08:11;19.15;68.38
72128;DHT22;60000;51.030;7.024;2022-10-16T16:10:36;19.09;68.57
72128;DHT22;60000;51.030;7.024;2022-10-16T16:13:01;19.06;68.82
72128;DHT22;60000;51.030;7.024;2022-10-16T16:15:27;18.98;69.16
72128;DHT22;60000;51.030;7.024;2022-10-16T16:17:52;18.98;69.40
72128;DHT22;60000;51.030;7.024;2022-10-16T16:20:17;18.91;69.69
72128;DHT22;60000;51.030;7.024;2022-10-16T16:22:43;18.85;70.01
72128;DHT22;60000;51.030;7.024;2022-10-16T16:25:08;18.81;70.43
72128;DHT22;60000;51.030;7.024;2022-10-16T16:27:34;18.78;70.63
72128;DHT22;60000;51.030;7.024;2022-10-16T16:30:00;18.72;70.96
72128;DHT22;60000;51.030;7.024;2022-10-16T16:32:26;18.68;71.13
72128;DHT22;60000;51.030;7.024;2022-10-16T16:34:51;18.59;71.61
72128;DHT22;60000;51.030;7.024;2022-10-16T16:37:17;18.61;71.87
72128;DHT22;60000;51.030;7.024;2022-10-16T16:39:42;18.57;72.14
72128;DHT22;60000;51.030;7.024;2022-10-16T16:42:07;18.55;72.50
72128;DHT22;60000;51.030;7.024;2022-10-16T16:44:35;18.48;72.83
72128;DHT22;60000;51.030;7.024;2022-10-16T16:47:02;18.43;73.07
72128;DHT22;60000;51.030;7.024;2022-10-16T16:49:28;18.41;73.29
72128;DHT22;60000;51.030;7.024;2022-10-16T16:51:53;18.36;73.52
72128;DHT22;60000;51.030;7.024;2022-10-16T16:54:19;18.31;73.89
72128;DHT22;60000;51.030;7.024;2022-10-16T16:56:44;18.28;74.10
72128;DHT22;60000;51.030;7.024;2022-10-16T16:59:13;18.24;74.24
72128;DHT22;60000;51.030;7.024;2022-10-16T17:01:42;18.20;74.45
72128;DHT22;60000;51.030;7.024;2022-10-16T17:04:08;18.21;74.62
72128;DHT22;60000;51.030;7.024;2022-10-16T17:06:35;18.21;74.81
72128;DHT22;60000;51.030;7.024;2022-10-16T17:09:02;18.17;75.02
72128;DHT22;60000;51.030;7.024;2022-10-16T17:11:28;18.13;75.10
72128;DHT22;60000;51.030;7.024;2022-10-16T17:13:55;18.11;75.38
72128;DHT22;60000;51.030;7.024;2022-10-16T17:16:22;18.10;75.64